createdAt,value
2022-08-31T00:03:57.621Z,1233.65351
2022-08-31T00:18:59.862Z,1123.90837
2022-08-31T00:34:02.089Z,1068.73162
2022-08-31T00:49:04.327Z,984.69083
2022-08-31T01:04:06.501Z,1000.0005
2022-08-31T01:19:08.844Z,1028.34352
2022-08-31T01:34:11.098Z,1054.39692
2022-08-31T01:49:13.491Z,1037.39053
2022-08-31T02:04:15.699Z,1023.13861
2022-08-31T02:19:17.925Z,991.59125
2022-08-31T02:34:20.113Z,912.90372
2022-08-31T02:49:22.357Z,891.05843
2022-08-31T03:04:26.517Z,844.27257
2022-08-31T03:19:28.738Z,864.91492
2022-08-31T03:34:30.919Z,822.19689
2022-08-31T03:49:33.128Z,780.47485
2022-08-31T04:04:35.345Z,765.27903
2022-08-31T04:19:37.570Z,769.44041
2022-08-31T04:34:39.812Z,719.74919
2022-08-31T04:49:42.178Z,724.91661
2022-08-31T05:04:44.379Z,671.85716
2022-08-31T05:19:46.941Z,636.17801
2022-08-31T05:34:49.433Z,599.48583
2022-08-31T05:49:51.648Z,588.01482
2022-08-31T06:04:54.154Z,620.53887
2022-08-31T06:19:56.396Z,633.32775
2022-08-31T06:34:58.598Z,598.97779
2022-08-31T06:50:00.794Z,560.94749
2022-08-31T07:05:03.019Z,564.53182
2022-08-31T07:20:05.194Z,591.95461
2022-08-31T07:35:07.383Z,568.61933
2022-08-31T07:50:09.565Z,589.48608
2022-08-31T08:05:11.784Z,587.03805
2022-08-31T08:20:14.148Z,566.79537
2022-08-31T08:35:16.365Z,572.76647
2022-08-31T08:50:18.539Z,582.68245
2022-08-31T09:05:20.787Z,589.97814
2022-08-31T09:20:22.960Z,601.01513
2022-08-31T09:35:25.149Z,607.73327
2022-08-31T09:50:27.384Z,618.90874
2022-08-31T10:05:30.134Z,661.17282
2022-08-31T10:20:32.369Z,645.47375
2022-08-31T10:35:34.622Z,611.41331
2022-08-31T10:50:36.991Z,606.16963
2022-08-31T11:05:39.195Z,607.21116
2022-08-31T11:20:41.397Z,605.13167
2022-08-31T11:35:43.632Z,620.53887
2022-08-31T11:50:45.835Z,666.1581
2022-08-31T12:05:48.141Z,638.47675
2022-08-31T12:20:50.443Z,647.24703
2022-08-31T12:35:52.628Z,635.6059
2022-08-31T12:50:54.926Z,623.82504
2022-08-31T13:05:57.130Z,596.95422
2022-08-31T13:20:59.329Z,568.61933
2022-08-31T13:36:01.675Z,548.75299
2022-08-31T13:51:03.910Z,564.53182
2022-08-31T14:06:06.161Z,545.78676
2022-08-31T14:21:20.897Z,569.53572
2022-08-31T14:36:24.059Z,581.24491
2022-08-31T14:51:26.661Z,619.45116
2022-08-31T15:06:28.894Z,671.85716
2022-08-31T15:21:31.066Z,700.48931
2022-08-31T15:36:33.379Z,694.29638
2022-08-31T15:51:35.629Z,725.66088
2022-08-31T16:06:37.855Z,785.67512
2022-08-31T16:21:40.110Z,728.6533
2022-08-31T16:36:42.299Z,724.17387
2022-08-31T16:51:48.443Z,699.79576
2022-08-31T17:06:50.917Z,761.16241
2022-08-31T17:21:53.118Z,780.90557
2022-08-31T17:36:55.295Z,782.20061
2022-08-31T17:51:57.467Z,767.35408
2022-08-31T18:07:00.859Z,780.47485
2022-08-31T18:22:03.053Z,814.62341
2022-08-31T18:37:05.391Z,826.51919
2022-08-31T18:52:07.599Z,843.76913
2022-08-31T19:07:09.829Z,858.09631
2022-08-31T19:22:12.024Z,890.49767
2022-08-31T19:37:14.258Z,862.2796
2022-08-31T19:52:16.454Z,852.41014
2022-08-31T20:07:18.620Z,780.90557
2022-08-31T20:22:20.786Z,699.79576
2022-08-31T20:37:23.044Z,715.37824
2022-08-31T20:52:25.284Z,809.03423
2022-08-31T21:07:27.479Z,862.80538
2022-08-31T21:22:29.793Z,958.67259
2022-08-31T21:37:32.118Z,967.1912
2022-08-31T21:52:34.545Z,987.43944
2022-08-31T22:07:36.769Z,1043.51083
2022-08-31T22:22:40.593Z,1007.83526
2022-08-31T22:37:42.903Z,981.27651
2022-08-31T22:52:45.178Z,959.32253
2022-08-31T23:07:47.414Z,951.58086
2022-08-31T23:22:49.667Z,931.5344
2022-08-31T23:37:51.889Z,885.48235
2022-08-31T23:52:54.260Z,839.26503
